sensor_id;sensor_type;location;lat;lon;timestamp;P1;durP1;ratioP1;P2;durP2;ratioP2
75465;SDS011;64049;46.290;44.240;2024-03-17T00:00:24;3.90;;;1.90;;
75465;SDS011;64049;46.290;44.240;2024-03-17T00:02:50;9.48;;;2.05;;
75465;SDS011;64049;46.290;44.240;2024-03-17T00:05:16;5.13;;;2.22;;
75465;SDS011;64049;46.290;44.240;2024-03-17T00:07:43;2.05;;;0.90;;
75465;SDS011;64049;46.290;44.240;2024-03-17T00:10:10;2.85;;;1.75;;
75465;SDS011;64049;46.290;44.240;2024-03-17T00:12:36;5.32;;;2.00;;
75465;SDS011;64049;46.290;44.240;2024-03-17T00:15:03;4.30;;;1.70;;
75465;SDS011;64049;46.290;44.240;2024-03-17T00:17:30;2.10;;;1.00;;
75465;SDS011;64049;46.290;44.240;2024-03-17T00:19:56;1.70;;;0.73;;
75465;SDS011;64049;46.290;44.240;2024-03-17T00:22:22;2.15;;;1.10;;
75465;SDS011;64049;46.290;44.240;2024-03-17T00:24:48;2.00;;;0.80;;
75465;SDS011;64049;46.290;44.240;2024-03-17T00:27:14;5.05;;;1.60;;
75465;SDS011;64049;46.290;44.240;2024-03-17T00:29:39;2.92;;;1.00;;
75465;SDS011;64049;46.290;44.240;2024-03-17T00:32:06;3.80;;;1.70;;
75465;SDS011;64049;46.290;44.240;2024-03-17T00:34:32;0.85;;;0.50;;
75465;SDS011;64049;46.290;44.240;2024-03-17T00:36:58;1.90;;;0.88;;
75465;SDS011;64049;46.290;44.240;2024-03-17T00:39:28;3.40;;;1.48;;
75465;SDS011;64049;46.290;44.240;2024-03-17T00:41:53;1.38;;;0.60;;
75465;SDS011;64049;46.290;44.240;2024-03-17T00:44:19;2.00;;;0.93;;
75465;SDS011;64049;46.290;44.240;2024-03-17T00:46:45;1.60;;;0.82;;
75465;SDS011;64049;46.290;44.240;2024-03-17T00:49:12;2.08;;;0.85;;
75465;SDS011;64049;46.290;44.240;2024-03-17T00:51:38;2.45;;;0.73;;
75465;SDS011;64049;46.290;44.240;2024-03-17T00:54:04;1.73;;;0.90;;
75465;SDS011;64049;46.290;44.240;2024-03-17T00:56:29;3.42;;;1.45;;
75465;SDS011;64049;46.290;44.240;2024-03-17T00:58:56;1.30;;;0.55;;
75465;SDS011;64049;46.290;44.240;2024-03-17T01:01:22;3.08;;;1.60;;
75465;SDS011;64049;46.290;44.240;2024-03-17T01:03:48;2.72;;;0.82;;
75465;SDS011;64049;46.290;44.240;2024-03-17T01:06:14;10.50;;;1.10;;
75465;SDS011;64049;46.290;44.240;2024-03-17T01:08:40;8.25;;;1.67;;
75465;SDS011;64049;46.290;44.240;2024-03-17T01:11:06;4.43;;;1.48;;
75465;SDS011;64049;46.290;44.240;2024-03-17T01:13:34;1.92;;;1.10;;
75465;SDS011;64049;46.290;44.240;2024-03-17T01:16:06;1.70;;;0.85;;
75465;SDS011;64049;46.290;44.240;2024-03-17T01:18:32;5.50;;;1.45;;
75465;SDS011;64049;46.290;44.240;2024-03-17T01:21:00;7.43;;;1.13;;
75465;SDS011;64049;46.290;44.240;2024-03-17T01:23:25;4.95;;;1.65;;
75465;SDS011;64049;46.290;44.240;2024-03-17T01:25:51;2.75;;;1.00;;
75465;SDS011;64049;46.290;44.240;2024-03-17T01:28:17;0.85;;;0.32;;
75465;SDS011;64049;46.290;44.240;2024-03-17T01:30:43;3.17;;;1.33;;
75465;SDS011;64049;46.290;44.240;2024-03-17T01:33:09;0.52;;;0.28;;
75465;SDS011;64049;46.290;44.240;2024-03-17T01:35:35;5.90;;;1.17;;
75465;SDS011;64049;46.290;44.240;2024-03-17T01:38:01;3.05;;;1.90;;
75465;SDS011;64049;46.290;44.240;2024-03-17T01:40:27;6.82;;;1.35;;
75465;SDS011;64049;46.290;44.240;2024-03-17T01:42:53;7.07;;;2.53;;
75465;SDS011;64049;46.290;44.240;2024-03-17T01:45:34;5.18;;;1.02;;
75465;SDS011;64049;46.290;44.240;2024-03-17T01:48:01;3.58;;;1.80;;
75465;SDS011;64049;46.290;44.240;2024-03-17T01:50:31;5.15;;;1.98;;
75465;SDS011;64049;46.290;44.240;2024-03-17T01:53:02;5.18;;;1.75;;
75465;SDS011;64049;46.290;44.240;2024-03-17T01:55:36;4.97;;;1.95;;
75465;SDS011;64049;46.290;44.240;2024-03-17T01:58:04;19.80;;;3.25;;
75465;SDS011;64049;46.290;44.240;2024-03-17T02:00:33;5.70;;;2.30;;
75465;SDS011;64049;46.290;44.240;2024-03-17T02:03:03;5.72;;;2.47;;
75465;SDS011;64049;46.290;44.240;2024-03-17T02:05:31;3.65;;;1.52;;
75465;SDS011;64049;46.290;44.240;2024-03-17T02:07:57;4.85;;;2.08;;
75465;SDS011;64049;46.290;44.240;2024-03-17T02:10:23;7.30;;;2.70;;
75465;SDS011;64049;46.290;44.240;2024-03-17T02:12:50;7.50;;;2.28;;
75465;SDS011;64049;46.290;44.240;2024-03-17T02:15:17;8.60;;;3.65;;
75465;SDS011;64049;46.290;44.240;2024-03-17T02:17:43;6.20;;;2.97;;
75465;SDS011;64049;46.290;44.240;2024-03-17T02:20:09;17.05;;;2.42;;
75465;SDS011;64049;46.290;44.240;2024-03-17T02:22:39;3.33;;;1.88;;
75465;SDS011;64049;46.290;44.240;2024-03-17T02:25:05;4.90;;;1.63;;
75465;SDS011;64049;46.290;44.240;2024-03-17T02:27:35;8.73;;;3.70;;
75465;SDS011;64049;46.290;44.240;2024-03-17T02:30:04;10.65;;;3.25;;
75465;SDS011;64049;46.290;44.240;2024-03-17T02:32:37;6.70;;;2.67;;
75465;SDS011;64049;46.290;44.240;2024-03-17T02:35:03;21.88;;;2.83;;
75465;SDS011;64049;46.290;44.240;2024-03-17T02:37:30;6.53;;;2.92;;
75465;SDS011;64049;46.290;44.240;2024-03-17T02:39:56;10.30;;;2.88;;
75465;SDS011;64049;46.290;44.240;2024-03-17T02:42:22;6.45;;;2.58;;
75465;SDS011;64049;46.290;44.240;2024-03-17T02:44:48;8.48;;;1.73;;
75465;SDS011;64049;46.290;44.240;2024-03-17T02:47:14;4.72;;;1.63;;
75465;SDS011;64049;46.290;44.240;2024-03-17T02:49:40;4.80;;;1.83;;
75465;SDS011;64049;46.290;44.240;2024-03-17T02:52:08;12.23;;;1.90;;
75465;SDS011;64049;46.290;44.240;2024-03-17T02:54:36;4.28;;;1.42;;
75465;SDS011;64049;46.290;44.240;2024-03-17T02:57:02;5.32;;;2.45;;
75465;SDS011;64049;46.290;44.240;2024-03-17T02:59:28;6.93;;;3.13;;
75465;SDS011;64049;46.290;44.240;2024-03-17T03:01:54;5.85;;;1.17;;
75465;SDS011;64049;46.290;44.240;2024-03-17T03:04:20;4.20;;;2.05;;
75465;SDS011;64049;46.290;44.240;2024-03-17T03:06:46;4.55;;;1.67;;
75465;SDS011;64049;46.290;44.240;2024-03-17T03:09:13;11.02;;;2.78;;
75465;SDS011;64049;46.290;44.240;2024-03-17T03:11:40;4.72;;;1.20;;
75465;SDS011;64049;46.290;44.240;2024-03-17T03:14:07;8.27;;;1.65;;
75465;SDS011;64049;46.290;44.240;2024-03-17T03:16:33;5.85;;;1.88;;
75465;SDS011;64049;46.290;44.240;2024-03-17T03:18:59;5.68;;;1.58;;
75465;SDS011;64049;46.290;44.240;2024-03-17T03:21:25;9.90;;;3.05;;
75465;SDS011;64049;46.290;44.240;2024-03-17T03:23:51;4.97;;;1.80;;
75465;SDS011;64049;46.290;44.240;2024-03-17T03:26:17;2.90;;;1.30;;
75465;SDS011;64049;46.290;44.240;2024-03-17T03:28:44;9.85;;;3.53;;
75465;SDS011;64049;46.290;44.240;2024-03-17T03:31:13;1.55;;;0.75;;
75465;SDS011;64049;46.290;44.240;2024-03-17T03:33:42;5.30;;;2.45;;
75465;SDS011;64049;46.290;44.240;2024-03-17T03:36:11;9.82;;;2.92;;
75465;SDS011;64049;46.290;44.240;2024-03-17T03:38:38;8.52;;;2.70;;
75465;SDS011;64049;46.290;44.240;2024-03-17T03:41:08;9.07;;;2.58;;
75465;SDS011;64049;46.290;44.240;2024-03-17T03:43:39;3.22;;;0.77;;
75465;SDS011;64049;46.290;44.240;2024-03-17T03:46:05;3.55;;;1.55;;
75465;SDS011;64049;46.290;44.240;2024-03-17T03:48:32;10.15;;;1.67;;
75465;SDS011;64049;46.290;44.240;2024-03-17T03:51:02;5.88;;;1.30;;
75465;SDS011;64049;46.290;44.240;2024-03-17T03:53:30;6.38;;;1.80;;
75465;SDS011;64049;46.290;44.240;2024-03-17T03:55:57;1.73;;;0.95;;
75465;SDS011;64049;46.290;44.240;2024-03-17T03:58:23;2.83;;;1.50;;
75465;SDS011;64049;46.290;44.240;2024-03-17T04:00:49;2.03;;;0.90;;
75465;SDS011;64049;46.290;44.240;2024-03-17T04:03:15;2.10;;;1.02;;
75465;SDS011;64049;46.290;44.240;2024-03-17T04:05:41;3.38;;;1.40;;
75465;SDS011;64049;46.290;44.240;2024-03-17T04:08:07;7.65;;;2.05;;
75465;SDS011;64049;46.290;44.240;2024-03-17T04:10:34;3.45;;;1.48;;
75465;SDS011;64049;46.290;44.240;2024-03-17T04:13:00;1.77;;;0.90;;
75465;SDS011;64049;46.290;44.240;2024-03-17T04:15:26;13.10;;;3.20;;
75465;SDS011;64049;46.290;44.240;2024-03-17T04:17:52;1.73;;;0.80;;
75465;SDS011;64049;46.290;44.240;2024-03-17T04:20:18;8.25;;;2.42;;
75465;SDS011;64049;46.290;44.240;2024-03-17T04:22:44;2.22;;;0.98;;
75465;SDS011;64049;46.290;44.240;2024-03-17T04:25:10;12.50;;;2.67;;
75465;SDS011;64049;46.290;44.240;2024-03-17T04:27:38;0.65;;;0.50;;
75465;SDS011;64049;46.290;44.240;2024-03-17T04:30:04;4.57;;;1.30;;
75465;SDS011;64049;46.290;44.240;2024-03-17T04:32:31;15.93;;;3.38;;
75465;SDS011;64049;46.290;44.240;2024-03-17T04:34:58;7.10;;;1.92;;
75465;SDS011;64049;46.290;44.240;2024-03-17T04:37:24;5.45;;;1.98;;
75465;SDS011;64049;46.290;44.240;2024-03-17T04:39:51;10.23;;;3.50;;
75465;SDS011;64049;46.290;44.240;2024-03-17T04:42:17;8.70;;;3.38;;
75465;SDS011;64049;46.290;44.240;2024-03-17T04:44:44;5.72;;;2.92;;
75465;SDS011;64049;46.290;44.240;2024-03-17T04:47:11;3.00;;;1.42;;
75465;SDS011;64049;46.290;44.240;2024-03-17T04:49:41;10.45;;;3.10;;
75465;SDS011;64049;46.290;44.240;2024-03-17T04:52:11;5.90;;;2.85;;
75465;SDS011;64049;46.290;44.240;2024-03-17T04:54:37;7.97;;;2.92;;
75465;SDS011;64049;46.290;44.240;2024-03-17T04:57:03;10.32;;;2.72;;
75465;SDS011;64049;46.290;44.240;2024-03-17T04:59:29;24.33;;;1.90;;
75465;SDS011;64049;46.290;44.240;2024-03-17T05:01:59;5.60;;;2.38;;
75465;SDS011;64049;46.290;44.240;2024-03-17T05:04:25;3.85;;;1.63;;
75465;SDS011;64049;46.290;44.240;2024-03-17T05:06:50;5.53;;;1.60;;
75465;SDS011;64049;46.290;44.240;2024-03-17T05:09:17;3.67;;;1.38;;
75465;SDS011;64049;46.290;44.240;2024-03-17T05:11:43;10.82;;;2.72;;
75465;SDS011;64049;46.290;44.240;2024-03-17T05:14:09;2.75;;;1.17;;
75465;SDS011;64049;46.290;44.240;2024-03-17T05:16:36;11.82;;;2.50;;
75465;SDS011;64049;46.290;44.240;2024-03-17T05:19:02;2.65;;;1.40;;
75465;SDS011;64049;46.290;44.240;2024-03-17T05:21:29;2.60;;;0.98;;
75465;SDS011;64049;46.290;44.240;2024-03-17T05:24:00;3.53;;;1.52;;
75465;SDS011;64049;46.290;44.240;2024-03-17T05:26:27;3.45;;;1.52;;
75465;SDS011;64049;46.290;44.240;2024-03-17T05:28:53;3.97;;;1.33;;
75465;SDS011;64049;46.290;44.240;2024-03-17T05:31:19;2.75;;;1.38;;
75465;SDS011;64049;46.290;44.240;2024-03-17T05:33:47;2.83;;;1.15;;
75465;SDS011;64049;46.290;44.240;2024-03-17T05:36:14;4.05;;;1.52;;
75465;SDS011;64049;46.290;44.240;2024-03-17T05:38:40;3.70;;;1.67;;
75465;SDS011;64049;46.290;44.240;2024-03-17T05:41:07;2.10;;;0.85;;
75465;SDS011;64049;46.290;44.240;2024-03-17T05:43:34;4.70;;;1.77;;
75465;SDS011;64049;46.290;44.240;2024-03-17T05:46:06;1.88;;;0.60;;
75465;SDS011;64049;46.290;44.240;2024-03-17T05:48:36;1.85;;;0.82;;
75465;SDS011;64049;46.290;44.240;2024-03-17T05:51:04;2.55;;;1.00;;
75465;SDS011;64049;46.290;44.240;2024-03-17T05:53:31;4.85;;;1.70;;
75465;SDS011;64049;46.290;44.240;2024-03-17T05:56:00;3.35;;;1.23;;
75465;SDS011;64049;46.290;44.240;2024-03-17T05:58:26;3.17;;;1.10;;
75465;SDS011;64049;46.290;44.240;2024-03-17T06:00:52;3.08;;;1.23;;
75465;SDS011;64049;46.290;44.240;2024-03-17T06:03:18;3.47;;;1.02;;
75465;SDS011;64049;46.290;44.240;2024-03-17T06:05:44;2.58;;;0.85;;
75465;SDS011;64049;46.290;44.240;2024-03-17T06:08:13;3.50;;;1.20;;
75465;SDS011;64049;46.290;44.240;2024-03-17T06:10:46;3.92;;;1.05;;
75465;SDS011;64049;46.290;44.240;2024-03-17T06:13:16;3.55;;;1.33;;
75465;SDS011;64049;46.290;44.240;2024-03-17T06:15:43;4.75;;;1.40;;
75465;SDS011;64049;46.290;44.240;2024-03-17T06:18:11;3.30;;;1.10;;
75465;SDS011;64049;46.290;44.240;2024-03-17T06:20:43;2.10;;;0.68;;
75465;SDS011;64049;46.290;44.240;2024-03-17T06:23:13;2.20;;;0.77;;
75465;SDS011;64049;46.290;44.240;2024-03-17T06:25:43;3.72;;;1.02;;
75465;SDS011;64049;46.290;44.240;2024-03-17T06:28:10;2.85;;;0.98;;
75465;SDS011;64049;46.290;44.240;2024-03-17T06:30:41;3.63;;;1.08;;
75465;SDS011;64049;46.290;44.240;2024-03-17T06:33:11;5.13;;;0.98;;
75465;SDS011;64049;46.290;44.240;2024-03-17T06:35:37;3.75;;;1.00;;
75465;SDS011;64049;46.290;44.240;2024-03-17T06:38:04;3.42;;;1.23;;
75465;SDS011;64049;46.290;44.240;2024-03-17T06:40:30;4.32;;;1.45;;
75465;SDS011;64049;46.290;44.240;2024-03-17T06:42:56;3.80;;;0.70;;
75465;SDS011;64049;46.290;44.240;2024-03-17T06:45:22;2.72;;;0.98;;
75465;SDS011;64049;46.290;44.240;2024-03-17T06:47:49;1.00;;;0.40;;
75465;SDS011;64049;46.290;44.240;2024-03-17T06:50:15;1.92;;;0.80;;
75465;SDS011;64049;46.290;44.240;2024-03-17T06:52:41;1.98;;;0.65;;
75465;SDS011;64049;46.290;44.240;2024-03-17T06:55:07;1.60;;;0.68;;
75465;SDS011;64049;46.290;44.240;2024-03-17T06:57:33;1.08;;;0.25;;
75465;SDS011;64049;46.290;44.240;2024-03-17T07:00:00;3.20;;;1.05;;
75465;SDS011;64049;46.290;44.240;2024-03-17T07:02:27;1.42;;;0.52;;
75465;SDS011;64049;46.290;44.240;2024-03-17T07:04:52;1.17;;;0.40;;
75465;SDS011;64049;46.290;44.240;2024-03-17T07:07:18;1.65;;;0.60;;
75465;SDS011;64049;46.290;44.240;2024-03-17T07:09:46;2.58;;;0.70;;
75465;SDS011;64049;46.290;44.240;2024-03-17T07:12:12;0.80;;;0.43;;
75465;SDS011;64049;46.290;44.240;2024-03-17T07:14:39;2.45;;;0.20;;
75465;SDS011;64049;46.290;44.240;2024-03-17T07:17:05;1.83;;;0.68;;
75465;SDS011;64049;46.290;44.240;2024-03-17T07:19:30;2.28;;;0.82;;
75465;SDS011;64049;46.290;44.240;2024-03-17T07:21:57;2.22;;;0.60;;
75465;SDS011;64049;46.290;44.240;2024-03-17T07:24:23;2.40;;;0.63;;
75465;SDS011;64049;46.290;44.240;2024-03-17T07:26:49;2.75;;;0.60;;
75465;SDS011;64049;46.290;44.240;2024-03-17T07:29:16;2.55;;;0.65;;
75465;SDS011;64049;46.290;44.240;2024-03-17T07:31:44;1.85;;;0.60;;
75465;SDS011;64049;46.290;44.240;2024-03-17T07:34:10;2.10;;;0.60;;
75465;SDS011;64049;46.290;44.240;2024-03-17T07:36:36;2.42;;;0.85;;
75465;SDS011;64049;46.290;44.240;2024-03-17T07:39:02;3.13;;;1.10;;
75465;SDS011;64049;46.290;44.240;2024-03-17T07:41:28;2.78;;;0.88;;
75465;SDS011;64049;46.290;44.240;2024-03-17T07:43:54;3.00;;;0.90;;
75465;SDS011;64049;46.290;44.240;2024-03-17T07:46:19;1.25;;;0.80;;
75465;SDS011;64049;46.290;44.240;2024-03-17T07:48:45;2.22;;;0.75;;
75465;SDS011;64049;46.290;44.240;2024-03-17T07:51:12;3.15;;;1.20;;
75465;SDS011;64049;46.290;44.240;2024-03-17T07:53:42;3.63;;;1.33;;
75465;SDS011;64049;46.290;44.240;2024-03-17T07:56:11;4.40;;;1.67;;
75465;SDS011;64049;46.290;44.240;2024-03-17T07:58:38;3.35;;;1.40;;
75465;SDS011;64049;46.290;44.240;2024-03-17T08:01:05;3.22;;;1.48;;
75465;SDS011;64049;46.290;44.240;2024-03-17T08:03:33;3.25;;;1.35;;
75465;SDS011;64049;46.290;44.240;2024-03-17T08:06:00;3.47;;;1.02;;
75465;SDS011;64049;46.290;44.240;2024-03-17T08:08:27;3.72;;;1.80;;
75465;SDS011;64049;46.290;44.240;2024-03-17T08:10:53;2.95;;;1.27;;
75465;SDS011;64049;46.290;44.240;2024-03-17T08:13:20;3.45;;;1.08;;
75465;SDS011;64049;46.290;44.240;2024-03-17T08:15:57;5.55;;;2.67;;
75465;SDS011;64049;46.290;44.240;2024-03-17T08:18:25;5.18;;;2.25;;
75465;SDS011;64049;46.290;44.240;2024-03-17T08:20:52;4.97;;;2.35;;
75465;SDS011;64049;46.290;44.240;2024-03-17T08:23:19;5.00;;;2.42;;
75465;SDS011;64049;46.290;44.240;2024-03-17T08:25:55;4.93;;;2.78;;
75465;SDS011;64049;46.290;44.240;2024-03-17T08:28:23;6.15;;;2.67;;
75465;SDS011;64049;46.290;44.240;2024-03-17T08:33:19;4.68;;;2.40;;
75465;SDS011;64049;46.290;44.240;2024-03-17T08:35:58;5.63;;;2.58;;
75465;SDS011;64049;46.290;44.240;2024-03-17T08:38:29;3.65;;;1.42;;
75465;SDS011;64049;46.290;44.240;2024-03-17T08:40:56;4.85;;;1.60;;
75465;SDS011;64049;46.290;44.240;2024-03-17T08:43:23;4.88;;;1.90;;
75465;SDS011;64049;46.290;44.240;2024-03-17T08:48:26;5.07;;;2.08;;
75465;SDS011;64049;46.290;44.240;2024-03-17T08:50:54;6.07;;;3.00;;
75465;SDS011;64049;46.290;44.240;2024-03-17T08:53:21;5.28;;;2.42;;
75465;SDS011;64049;46.290;44.240;2024-03-17T08:55:47;6.35;;;3.20;;
75465;SDS011;64049;46.290;44.240;2024-03-17T08:58:13;6.72;;;3.60;;
75465;SDS011;64049;46.290;44.240;2024-03-17T09:00:39;8.20;;;3.45;;
75465;SDS011;64049;46.290;44.240;2024-03-17T09:03:09;7.97;;;4.22;;
75465;SDS011;64049;46.290;44.240;2024-03-17T09:05:39;6.43;;;2.58;;
75465;SDS011;64049;46.290;44.240;2024-03-17T09:10:46;7.32;;;4.43;;
75465;SDS011;64049;46.290;44.240;2024-03-17T09:13:14;5.80;;;3.22;;
75465;SDS011;64049;46.290;44.240;2024-03-17T09:16:02;7.82;;;3.75;;
75465;SDS011;64049;46.290;44.240;2024-03-17T09:18:28;8.52;;;4.47;;
75465;SDS011;64049;46.290;44.240;2024-03-17T09:21:12;6.80;;;3.10;;
75465;SDS011;64049;46.290;44.240;2024-03-17T09:23:39;6.63;;;3.17;;
75465;SDS011;64049;46.290;44.240;2024-03-17T09:26:08;7.32;;;4.22;;
75465;SDS011;64049;46.290;44.240;2024-03-17T09:28:35;7.10;;;3.50;;
75465;SDS011;64049;46.290;44.240;2024-03-17T09:31:02;6.40;;;3.28;;
75465;SDS011;64049;46.290;44.240;2024-03-17T09:33:30;5.82;;;3.20;;
75465;SDS011;64049;46.290;44.240;2024-03-17T09:35:56;7.63;;;4.00;;
75465;SDS011;64049;46.290;44.240;2024-03-17T09:38:29;7.03;;;4.13;;
75465;SDS011;64049;46.290;44.240;2024-03-17T09:40:55;7.25;;;3.28;;
75465;SDS011;64049;46.290;44.240;2024-03-17T09:43:29;8.63;;;3.42;;
75465;SDS011;64049;46.290;44.240;2024-03-17T09:46:01;8.93;;;4.72;;
75465;SDS011;64049;46.290;44.240;2024-03-17T09:48:28;7.45;;;4.47;;
75465;SDS011;64049;46.290;44.240;2024-03-17T09:50:55;6.90;;;3.85;;
75465;SDS011;64049;46.290;44.240;2024-03-17T09:53:26;8.63;;;3.70;;
75465;SDS011;64049;46.290;44.240;2024-03-17T09:55:54;5.47;;;3.17;;
75465;SDS011;64049;46.290;44.240;2024-03-17T09:58:44;5.25;;;2.63;;
75465;SDS011;64049;46.290;44.240;2024-03-17T10:01:14;7.10;;;3.85;;
75465;SDS011;64049;46.290;44.240;2024-03-17T10:03:41;6.47;;;3.67;;
75465;SDS011;64049;46.290;44.240;2024-03-17T10:06:08;8.38;;;4.25;;
75465;SDS011;64049;46.290;44.240;2024-03-17T10:08:40;6.93;;;4.43;;
75465;SDS011;64049;46.290;44.240;2024-03-17T10:11:10;8.07;;;3.72;;
75465;SDS011;64049;46.290;44.240;2024-03-17T10:13:37;6.60;;;3.58;;
75465;SDS011;64049;46.290;44.240;2024-03-17T10:16:03;8.43;;;4.57;;
75465;SDS011;64049;46.290;44.240;2024-03-17T10:18:29;7.28;;;4.30;;
75465;SDS011;64049;46.290;44.240;2024-03-17T10:20:56;7.90;;;4.25;;
75465;SDS011;64049;46.290;44.240;2024-03-17T10:23:23;7.22;;;3.58;;
75465;SDS011;64049;46.290;44.240;2024-03-17T10:25:50;5.72;;;3.22;;
75465;SDS011;64049;46.290;44.240;2024-03-17T10:28:16;6.97;;;4.18;;
75465;SDS011;64049;46.290;44.240;2024-03-17T10:30:56;7.57;;;3.45;;
75465;SDS011;64049;46.290;44.240;2024-03-17T10:33:24;7.20;;;3.55;;
75465;SDS011;64049;46.290;44.240;2024-03-17T10:35:51;5.32;;;2.75;;
75465;SDS011;64049;46.290;44.240;2024-03-17T10:38:25;7.85;;;3.63;;
75465;SDS011;64049;46.290;44.240;2024-03-17T10:40:52;6.05;;;3.35;;
75465;SDS011;64049;46.290;44.240;2024-03-17T10:43:19;6.95;;;4.22;;
75465;SDS011;64049;46.290;44.240;2024-03-17T10:45:51;4.00;;;1.73;;
75465;SDS011;64049;46.290;44.240;2024-03-17T10:48:19;6.18;;;2.90;;
75465;SDS011;64049;46.290;44.240;2024-03-17T10:50:49;5.93;;;3.67;;
75465;SDS011;64049;46.290;44.240;2024-03-17T10:53:19;7.07;;;3.45;;
75465;SDS011;64049;46.290;44.240;2024-03-17T10:56:04;6.60;;;3.78;;
75465;SDS011;64049;46.290;44.240;2024-03-17T10:58:35;7.85;;;3.00;;
75465;SDS011;64049;46.290;44.240;2024-03-17T11:01:03;5.63;;;2.90;;
75465;SDS011;64049;46.290;44.240;2024-03-17T11:03:33;6.68;;;3.17;;
75465;SDS011;64049;46.290;44.240;2024-03-17T11:06:00;5.75;;;3.20;;
75465;SDS011;64049;46.290;44.240;2024-03-17T11:08:30;6.07;;;2.65;;
75465;SDS011;64049;46.290;44.240;2024-03-17T11:10:58;5.35;;;2.78;;
75465;SDS011;64049;46.290;44.240;2024-03-17T11:13:28;6.30;;;2.83;;
75465;SDS011;64049;46.290;44.240;2024-03-17T11:15:58;4.43;;;2.42;;
75465;SDS011;64049;46.290;44.240;2024-03-17T11:21:03;7.15;;;3.05;;
75465;SDS011;64049;46.290;44.240;2024-03-17T11:23:36;5.95;;;2.80;;
75465;SDS011;64049;46.290;44.240;2024-03-17T11:26:03;5.13;;;2.13;;
75465;SDS011;64049;46.290;44.240;2024-03-17T11:33:58;7.90;;;3.05;;
75465;SDS011;64049;46.290;44.240;2024-03-17T11:41:53;9.35;;;3.25;;
75465;SDS011;64049;46.290;44.240;2024-03-17T11:47:01;6.13;;;2.38;;
75465;SDS011;64049;46.290;44.240;2024-03-17T11:49:41;7.55;;;2.30;;
75465;SDS011;64049;46.290;44.240;2024-03-17T11:52:10;5.03;;;1.90;;
75465;SDS011;64049;46.290;44.240;2024-03-17T11:54:38;5.70;;;2.78;;
75465;SDS011;64049;46.290;44.240;2024-03-17T11:57:12;7.78;;;2.65;;
75465;SDS011;64049;46.290;44.240;2024-03-17T11:59:40;7.32;;;2.65;;
75465;SDS011;64049;46.290;44.240;2024-03-17T12:02:10;7.15;;;2.95;;
75465;SDS011;64049;46.290;44.240;2024-03-17T12:04:58;5.38;;;2.08;;
75465;SDS011;64049;46.290;44.240;2024-03-17T12:07:25;8.43;;;3.08;;
75465;SDS011;64049;46.290;44.240;2024-03-17T12:09:53;6.65;;;2.17;;
75465;SDS011;64049;46.290;44.240;2024-03-17T12:12:21;5.68;;;2.20;;
75465;SDS011;64049;46.290;44.240;2024-03-17T12:14:49;7.43;;;2.33;;
75465;SDS011;64049;46.290;44.240;2024-03-17T12:17:22;5.25;;;2.30;;
75465;SDS011;64049;46.290;44.240;2024-03-17T12:19:49;9.30;;;2.92;;
75465;SDS011;64049;46.290;44.240;2024-03-17T12:22:20;5.53;;;2.33;;
75465;SDS011;64049;46.290;44.240;2024-03-17T12:24:51;5.53;;;1.88;;
75465;SDS011;64049;46.290;44.240;2024-03-17T12:27:25;5.30;;;2.75;;
75465;SDS011;64049;46.290;44.240;2024-03-17T12:29:52;4.75;;;2.08;;
75465;SDS011;64049;46.290;44.240;2024-03-17T12:34:48;5.63;;;2.22;;
75465;SDS011;64049;46.290;44.240;2024-03-17T12:37:18;6.65;;;2.30;;
75465;SDS011;64049;46.290;44.240;2024-03-17T12:39:49;5.95;;;1.58;;
75465;SDS011;64049;46.290;44.240;2024-03-17T12:42:24;5.82;;;1.95;;
75465;SDS011;64049;46.290;44.240;2024-03-17T12:44:53;5.05;;;2.10;;
75465;SDS011;64049;46.290;44.240;2024-03-17T12:47:21;4.53;;;1.95;;
75465;SDS011;64049;46.290;44.240;2024-03-17T12:49:52;7.07;;;2.55;;
75465;SDS011;64049;46.290;44.240;2024-03-17T12:52:21;8.60;;;3.35;;
75465;SDS011;64049;46.290;44.240;2024-03-17T12:55:03;5.35;;;2.25;;
75465;SDS011;64049;46.290;44.240;2024-03-17T12:57:52;4.25;;;2.15;;
75465;SDS011;64049;46.290;44.240;2024-03-17T13:00:46;8.13;;;3.75;;
75465;SDS011;64049;46.290;44.240;2024-03-17T13:03:33;9.25;;;4.28;;
75465;SDS011;64049;46.290;44.240;2024-03-17T13:06:01;9.65;;;3.20;;
75465;SDS011;64049;46.290;44.240;2024-03-17T13:08:37;5.90;;;1.98;;
75465;SDS011;64049;46.290;44.240;2024-03-17T13:11:03;7.85;;;1.67;;
75465;SDS011;64049;46.290;44.240;2024-03-17T13:13:29;7.72;;;2.33;;
75465;SDS011;64049;46.290;44.240;2024-03-17T13:15:55;5.10;;;2.25;;
75465;SDS011;64049;46.290;44.240;2024-03-17T13:18:21;5.53;;;2.08;;
75465;SDS011;64049;46.290;44.240;2024-03-17T13:20:48;8.13;;;2.47;;
75465;SDS011;64049;46.290;44.240;2024-03-17T13:23:19;6.03;;;2.08;;
75465;SDS011;64049;46.290;44.240;2024-03-17T13:25:49;8.43;;;2.10;;
75465;SDS011;64049;46.290;44.240;2024-03-17T13:28:15;7.03;;;2.10;;
75465;SDS011;64049;46.290;44.240;2024-03-17T13:30:41;6.07;;;1.58;;
75465;SDS011;64049;46.290;44.240;2024-03-17T13:33:08;6.63;;;1.83;;
75465;SDS011;64049;46.290;44.240;2024-03-17T13:35:36;2.63;;;1.00;;
75465;SDS011;64049;46.290;44.240;2024-03-17T13:38:06;4.93;;;1.90;;
75465;SDS011;64049;46.290;44.240;2024-03-17T13:40:33;5.72;;;1.60;;
75465;SDS011;64049;46.290;44.240;2024-03-17T13:43:00;8.90;;;1.83;;
75465;SDS011;64049;46.290;44.240;2024-03-17T13:45:27;3.70;;;1.70;;
75465;SDS011;64049;46.290;44.240;2024-03-17T13:48:01;3.60;;;1.10;;
75465;SDS011;64049;46.290;44.240;2024-03-17T13:50:36;3.50;;;1.15;;
75465;SDS011;64049;46.290;44.240;2024-03-17T13:53:03;9.02;;;1.90;;
75465;SDS011;64049;46.290;44.240;2024-03-17T13:55:29;6.53;;;1.40;;
75465;SDS011;64049;46.290;44.240;2024-03-17T13:57:56;5.18;;;1.25;;
75465;SDS011;64049;46.290;44.240;2024-03-17T14:00:25;6.25;;;2.08;;
75465;SDS011;64049;46.290;44.240;2024-03-17T14:02:52;4.75;;;1.45;;
75465;SDS011;64049;46.290;44.240;2024-03-17T14:05:19;5.65;;;1.85;;
75465;SDS011;64049;46.290;44.240;2024-03-17T14:07:46;6.60;;;2.25;;
75465;SDS011;64049;46.290;44.240;2024-03-17T14:10:13;8.13;;;2.25;;
75465;SDS011;64049;46.290;44.240;2024-03-17T14:12:41;4.72;;;1.75;;
75465;SDS011;64049;46.290;44.240;2024-03-17T14:15:07;7.90;;;1.90;;
75465;SDS011;64049;46.290;44.240;2024-03-17T14:17:37;9.20;;;2.55;;
75465;SDS011;64049;46.290;44.240;2024-03-17T14:20:04;5.80;;;2.30;;
75465;SDS011;64049;46.290;44.240;2024-03-17T14:22:35;8.85;;;2.17;;
75465;SDS011;64049;46.290;44.240;2024-03-17T14:25:03;5.35;;;2.08;;
75465;SDS011;64049;46.290;44.240;2024-03-17T14:27:30;7.90;;;2.20;;
75465;SDS011;64049;46.290;44.240;2024-03-17T14:29:56;6.13;;;2.40;;
75465;SDS011;64049;46.290;44.240;2024-03-17T14:32:23;3.83;;;1.38;;
75465;SDS011;64049;46.290;44.240;2024-03-17T14:34:49;6.57;;;1.85;;
75465;SDS011;64049;46.290;44.240;2024-03-17T14:37:15;3.90;;;1.83;;
75465;SDS011;64049;46.290;44.240;2024-03-17T14:39:41;6.38;;;2.20;;
75465;SDS011;64049;46.290;44.240;2024-03-17T14:42:07;4.63;;;1.20;;
75465;SDS011;64049;46.290;44.240;2024-03-17T14:44:34;4.45;;;1.75;;
75465;SDS011;64049;46.290;44.240;2024-03-17T14:47:03;5.88;;;1.45;;
75465;SDS011;64049;46.290;44.240;2024-03-17T14:49:32;5.13;;;1.70;;
75465;SDS011;64049;46.290;44.240;2024-03-17T14:51:58;5.25;;;2.20;;
75465;SDS011;64049;46.290;44.240;2024-03-17T14:54:25;6.03;;;1.73;;
75465;SDS011;64049;46.290;44.240;2024-03-17T14:56:51;4.97;;;2.15;;
75465;SDS011;64049;46.290;44.240;2024-03-17T14:59:19;7.90;;;3.42;;
75465;SDS011;64049;46.290;44.240;2024-03-17T15:01:45;7.30;;;3.55;;
75465;SDS011;64049;46.290;44.240;2024-03-17T15:04:12;7.25;;;3.40;;